sensor_id;sensor_type;location;lat;lon;timestamp;temperature;humidity
19646;DHT22;9971;52.446;13.452;2023-07-02T00:02:02;27.50;99.90
19646;DHT22;9971;52.446;13.452;2023-07-02T00:07:05;27.50;99.90
19646;DHT22;9971;52.446;13.452;2023-07-02T00:12:08;27.50;99.90
19646;DHT22;9971;52.446;13.452;2023-07-02T00:17:10;27.40;99.90
19646;DHT22;9971;52.446;13.452;2023-07-02T00:22:13;27.50;99.90
19646;DHT22;9971;52.446;13.452;2023-07-02T00:27:16;27.50;99.90
19646;DHT22;9971;52.446;13.452;2023-07-02T00:32:18;27.40;99.90
19646;DHT22;9971;52.446;13.452;2023-07-02T00:37:20;27.40;99.90
19646;DHT22;9971;52.446;13.452;2023-07-02T00:42:23;27.40;99.90
19646;DHT22;9971;52.446;13.452;2023-07-02T00:47:26;27.40;99.90
19646;DHT22;9971;52.446;13.452;2023-07-02T00:52:28;27.40;99.90
19646;DHT22;9971;52.446;13.452;2023-07-02T00:57:30;27.40;99.90
19646;DHT22;9971;52.446;13.452;2023-07-02T03:37:59;26.90;97.80
19646;DHT22;9971;52.446;13.452;2023-07-02T03:43:02;26.90;97.80
19646;DHT22;9971;52.446;13.452;2023-07-02T03:48:04;26.90;97.60
19646;DHT22;9971;52.446;13.452;2023-07-02T03:53:06;26.90;97.60
19646;DHT22;9971;52.446;13.452;2023-07-02T03:58:09;26.90;97.40
19646;DHT22;9971;52.446;13.452;2023-07-02T04:03:11;26.90;97.40
19646;DHT22;9971;52.446;13.452;2023-07-02T04:08:14;26.90;97.50
19646;DHT22;9971;52.446;13.452;2023-07-02T04:13:16;26.90;97.10
19646;DHT22;9971;52.446;13.452;2023-07-02T04:18:18;26.90;97.10
19646;DHT22;9971;52.446;13.452;2023-07-02T04:23:21;26.90;96.80
19646;DHT22;9971;52.446;13.452;2023-07-02T04:28:24;26.90;96.70
19646;DHT22;9971;52.446;13.452;2023-07-02T04:33:26;26.90;96.20
19646;DHT22;9971;52.446;13.452;2023-07-02T04:38:29;26.90;96.60
19646;DHT22;9971;52.446;13.452;2023-07-02T04:43:32;26.90;95.90
19646;DHT22;9971;52.446;13.452;2023-07-02T04:48:34;26.80;96.20
19646;DHT22;9971;52.446;13.452;2023-07-02T04:53:36;26.80;95.70
19646;DHT22;9971;52.446;13.452;2023-07-02T04:58:38;26.90;95.90
19646;DHT22;9971;52.446;13.452;2023-07-02T05:03:40;26.90;96.00
19646;DHT22;9971;52.446;13.452;2023-07-02T05:08:43;26.80;95.20
19646;DHT22;9971;52.446;13.452;2023-07-02T05:13:45;26.80;95.80
19646;DHT22;9971;52.446;13.452;2023-07-02T05:18:47;26.80;95.20
19646;DHT22;9971;52.446;13.452;2023-07-02T05:23:50;26.80;95.80
19646;DHT22;9971;52.446;13.452;2023-07-02T05:28:52;26.80;95.40
19646;DHT22;9971;52.446;13.452;2023-07-02T05:33:55;26.80;95.10
19646;DHT22;9971;52.446;13.452;2023-07-02T05:38:57;26.70;95.20
19646;DHT22;9971;52.446;13.452;2023-07-02T05:43:59;26.60;95.20
19646;DHT22;9971;52.446;13.452;2023-07-02T05:49:02;26.60;95.50
19646;DHT22;9971;52.446;13.452;2023-07-02T05:54:05;26.60;94.90
19646;DHT22;9971;52.446;13.452;2023-07-02T05:59:07;26.50;94.50
19646;DHT22;9971;52.446;13.452;2023-07-02T06:04:10;26.50;95.00
19646;DHT22;9971;52.446;13.452;2023-07-02T06:09:12;26.50;94.60
19646;DHT22;9971;52.446;13.452;2023-07-02T06:14:16;26.50;94.70
19646;DHT22;9971;52.446;13.452;2023-07-02T06:19:18;26.40;94.10
19646;DHT22;9971;52.446;13.452;2023-07-02T06:24:21;26.40;94.20
19646;DHT22;9971;52.446;13.452;2023-07-02T06:29:23;26.40;94.10
19646;DHT22;9971;52.446;13.452;2023-07-02T06:34:26;26.30;94.20
19646;DHT22;9971;52.446;13.452;2023-07-02T06:39:28;26.40;93.30
19646;DHT22;9971;52.446;13.452;2023-07-02T06:44:31;26.30;93.60
19646;DHT22;9971;52.446;13.452;2023-07-02T06:49:33;26.30;93.20
19646;DHT22;9971;52.446;13.452;2023-07-02T06:54:36;26.30;92.60
19646;DHT22;9971;52.446;13.452;2023-07-02T06:59:38;26.30;92.60
19646;DHT22;9971;52.446;13.452;2023-07-02T07:04:41;26.20;93.00
19646;DHT22;9971;52.446;13.452;2023-07-02T07:09:43;26.30;92.60
19646;DHT22;9971;52.446;13.452;2023-07-02T07:14:46;26.20;91.60
19646;DHT22;9971;52.446;13.452;2023-07-02T07:19:48;26.20;91.70
19646;DHT22;9971;52.446;13.452;2023-07-02T07:24:51;26.20;91.90
19646;DHT22;9971;52.446;13.452;2023-07-02T07:29:53;26.20;90.90
19646;DHT22;9971;52.446;13.452;2023-07-02T07:34:57;26.20;91.00
19646;DHT22;9971;52.446;13.452;2023-07-02T07:39:59;26.10;90.20
19646;DHT22;9971;52.446;13.452;2023-07-02T07:45:02;26.10;90.80
19646;DHT22;9971;52.446;13.452;2023-07-02T07:50:05;26.10;90.80
19646;DHT22;9971;52.446;13.452;2023-07-02T07:55:07;26.00;90.40
19646;DHT22;9971;52.446;13.452;2023-07-02T08:00:10;26.00;90.20
19646;DHT22;9971;52.446;13.452;2023-07-02T08:05:13;25.90;90.00
19646;DHT22;9971;52.446;13.452;2023-07-02T08:10:16;25.80;90.40
19646;DHT22;9971;52.446;13.452;2023-07-02T08:15:18;25.80;90.80
19646;DHT22;9971;52.446;13.452;2023-07-02T08:20:21;25.80;90.90
19646;DHT22;9971;52.446;13.452;2023-07-02T08:25:23;25.80;91.20
19646;DHT22;9971;52.446;13.452;2023-07-02T08:30:26;25.80;91.40
19646;DHT22;9971;52.446;13.452;2023-07-02T09:23:53;25.80;86.30
19646;DHT22;9971;52.446;13.452;2023-07-02T09:29:00;25.70;85.90
19646;DHT22;9971;52.446;13.452;2023-07-02T09:34:01;25.70;86.50
19646;DHT22;9971;52.446;13.452;2023-07-02T09:39:03;25.70;87.80
19646;DHT22;9971;52.446;13.452;2023-07-02T09:44:06;25.70;88.00
19646;DHT22;9971;52.446;13.452;2023-07-02T09:49:07;25.60;87.50
19646;DHT22;9971;52.446;13.452;2023-07-02T09:54:10;25.50;87.80
19646;DHT22;9971;52.446;13.452;2023-07-02T09:59:12;25.50;87.30
19646;DHT22;9971;52.446;13.452;2023-07-02T10:04:14;25.50;86.40
19646;DHT22;9971;52.446;13.452;2023-07-02T10:09:16;25.50;86.90
19646;DHT22;9971;52.446;13.452;2023-07-02T10:14:19;25.50;83.60
19646;DHT22;9971;52.446;13.452;2023-07-02T10:19:22;25.50;84.00
19646;DHT22;9971;52.446;13.452;2023-07-02T10:24:24;25.40;85.70
19646;DHT22;9971;52.446;13.452;2023-07-02T10:29:26;25.40;86.70
19646;DHT22;9971;52.446;13.452;2023-07-02T10:34:33;25.40;87.80
19646;DHT22;9971;52.446;13.452;2023-07-02T10:39:38;25.40;88.90
19646;DHT22;9971;52.446;13.452;2023-07-02T10:44:47;25.40;89.70
19646;DHT22;9971;52.446;13.452;2023-07-02T10:49:49;25.40;88.70
19646;DHT22;9971;52.446;13.452;2023-07-02T10:54:53;25.40;86.80
19646;DHT22;9971;52.446;13.452;2023-07-02T11:00:03;25.30;86.60
19646;DHT22;9971;52.446;13.452;2023-07-02T11:04:59;25.30;87.30
19646;DHT22;9971;52.446;13.452;2023-07-02T11:10:01;25.30;87.20
19646;DHT22;9971;52.446;13.452;2023-07-02T11:15:09;25.40;86.20
19646;DHT22;9971;52.446;13.452;2023-07-02T11:20:12;25.40;86.20
19646;DHT22;9971;52.446;13.452;2023-07-02T11:25:15;25.30;81.90
19646;DHT22;9971;52.446;13.452;2023-07-02T11:30:16;25.30;79.70
19646;DHT22;9971;52.446;13.452;2023-07-02T11:35:19;25.30;78.60
19646;DHT22;9971;52.446;13.452;2023-07-02T11:40:22;25.30;78.10
19646;DHT22;9971;52.446;13.452;2023-07-02T11:45:26;25.20;77.60
19646;DHT22;9971;52.446;13.452;2023-07-02T11:50:36;25.20;81.10
19646;DHT22;9971;52.446;13.452;2023-07-02T11:55:43;25.20;81.50
19646;DHT22;9971;52.446;13.452;2023-07-02T12:06:14;25.10;79.80
19646;DHT22;9971;52.446;13.452;2023-07-02T12:11:36;25.10;76.30
19646;DHT22;9971;52.446;13.452;2023-07-02T12:16:44;25.20;74.30
19646;DHT22;9971;52.446;13.452;2023-07-02T12:21:53;25.20;76.30
19646;DHT22;9971;52.446;13.452;2023-07-02T12:27:05;25.30;75.80
19646;DHT22;9971;52.446;13.452;2023-07-02T12:32:16;25.20;75.20
19646;DHT22;9971;52.446;13.452;2023-07-02T12:37:34;25.30;73.90
19646;DHT22;9971;52.446;13.452;2023-07-02T12:59:07;25.40;72.00
19646;DHT22;9971;52.446;13.452;2023-07-02T13:20:25;25.50;70.40
19646;DHT22;9971;52.446;13.452;2023-07-02T13:25:29;25.50;70.70
19646;DHT22;9971;52.446;13.452;2023-07-02T13:30:33;25.60;70.80
19646;DHT22;9971;52.446;13.452;2023-07-02T13:35:37;25.60;70.00
19646;DHT22;9971;52.446;13.452;2023-07-02T14:02:18;25.70;67.70
19646;DHT22;9971;52.446;13.452;2023-07-02T14:07:33;25.70;66.00
19646;DHT22;9971;52.446;13.452;2023-07-02T14:28:48;25.80;65.50
19646;DHT22;9971;52.446;13.452;2023-07-02T14:34:05;25.80;65.10
19646;DHT22;9971;52.446;13.452;2023-07-02T15:00:51;25.80;62.00
19646;DHT22;9971;52.446;13.452;2023-07-02T16:10:53;26.10;62.20
19646;DHT22;9971;52.446;13.452;2023-07-02T16:16:22;26.10;62.40
19646;DHT22;9971;52.446;13.452;2023-07-02T16:21:29;26.20;63.00
19646;DHT22;9971;52.446;13.452;2023-07-02T16:26:43;26.20;62.30
19646;DHT22;9971;52.446;13.452;2023-07-02T16:32:00;26.20;62.50
19646;DHT22;9971;52.446;13.452;2023-07-02T16:37:06;26.20;62.90
19646;DHT22;9971;52.446;13.452;2023-07-02T17:19:47;26.50;61.80
19646;DHT22;9971;52.446;13.452;2023-07-02T17:24:50;26.50;62.10
19646;DHT22;9971;52.446;13.452;2023-07-02T17:30:01;26.50;61.50
19646;DHT22;9971;52.446;13.452;2023-07-02T17:51:22;26.60;61.40
19646;DHT22;9971;52.446;13.452;2023-07-02T18:17:55;26.70;61.20
19646;DHT22;9971;52.446;13.452;2023-07-02T18:22:58;26.70;60.80
19646;DHT22;9971;52.446;13.452;2023-07-02T18:28:03;26.60;60.00
19646;DHT22;9971;52.446;13.452;2023-07-02T18:33:05;26.60;60.30
19646;DHT22;9971;52.446;13.452;2023-07-02T18:38:07;26.70;60.60
19646;DHT22;9971;52.446;13.452;2023-07-02T18:43:10;26.70;60.60
19646;DHT22;9971;52.446;13.452;2023-07-02T18:48:12;26.70;61.00
19646;DHT22;9971;52.446;13.452;2023-07-02T18:53:14;26.70;61.00
19646;DHT22;9971;52.446;13.452;2023-07-02T18:58:16;26.70;61.30
19646;DHT22;9971;52.446;13.452;2023-07-02T19:03:19;26.80;61.30
19646;DHT22;9971;52.446;13.452;2023-07-02T19:08:21;26.80;61.30
19646;DHT22;9971;52.446;13.452;2023-07-02T19:13:31;26.80;61.50
19646;DHT22;9971;52.446;13.452;2023-07-02T19:40:30;27.10;61.90
19646;DHT22;9971;52.446;13.452;2023-07-02T19:45:36;27.10;61.90
19646;DHT22;9971;52.446;13.452;2023-07-02T19:50:41;27.10;62.10
19646;DHT22;9971;52.446;13.452;2023-07-02T19:55:45;27.10;62.20
19646;DHT22;9971;52.446;13.452;2023-07-02T20:00:57;27.10;62.30
19646;DHT22;9971;52.446;13.452;2023-07-02T20:06:21;27.10;62.50
19646;DHT22;9971;52.446;13.452;2023-07-02T20:11:45;27.10;62.90
19646;DHT22;9971;52.446;13.452;2023-07-02T20:16:49;27.20;63.70
19646;DHT22;9971;52.446;13.452;2023-07-02T20:21:58;27.20;64.20
19646;DHT22;9971;52.446;13.452;2023-07-02T20:27:04;27.30;64.90
19646;DHT22;9971;52.446;13.452;2023-07-02T20:37:32;27.30;65.70
19646;DHT22;9971;52.446;13.452;2023-07-02T20:42:37;27.30;66.10
19646;DHT22;9971;52.446;13.452;2023-07-02T20:47:40;27.30;66.40
19646;DHT22;9971;52.446;13.452;2023-07-02T20:52:48;27.30;66.70
19646;DHT22;9971;52.446;13.452;2023-07-02T20:57:55;27.40;66.90
19646;DHT22;9971;52.446;13.452;2023-07-02T22:07:42;27.80;71.50
19646;DHT22;9971;52.446;13.452;2023-07-02T22:12:51;27.80;72.00
